Time;durP1;ratioP1;P1;durP2;ratioP2;P2;SDS_P1;SDS_P2;PMS_P1;PMS_P2;Temp;Humidity;BMP_temperature;BMP_pressure;BME280_temperature;BME280_humidity;BME280_pressure;Samples;Min_cycle;Max_cycle;Signal;HPM_P1;HPM_P2
2023/04/10 00:00:30;;;;;;;;;;;9.10;99.90;;;;;;5089747;28;19980;-75
2023/04/10 00:02:57;;;;;;;;;;;9.10;99.90;;;;;;5107544;28;19948;-75
2023/04/10 00:05:22;;;;;;;;;;;9.10;99.90;;;;;;5089531;28;19928;-75
2023/04/10 00:07:48;;;;;;;;;;;9.00;99.90;;;;;;5107725;28;19986;-75
2023/04/10 00:10:13;;;;;;;;;;;9.00;99.90;;;;;;5093277;28;20510;-75
2023/04/10 00:12:39;;;;;;;;;;;9.00;99.90;;;;;;5106012;28;19924;-76
2023/04/10 00:15:05;;;;;;;;;;;9.00;99.90;;;;;;5103885;28;19924;-75
2023/04/10 00:17:30;;;;;;;;;;;8.90;99.90;;;;;;5109308;28;19927;-75
2023/04/10 00:19:58;;;;;;;;;;;8.90;99.90;;;;;;5095780;28;19932;-76
2023/04/10 00:22:23;;;;;;;;;;;8.80;99.90;;;;;;5110098;28;19930;-75
2023/04/10 00:24:49;;;;;;;;;;;8.80;99.90;;;;;;5108786;28;20011;-75
2023/04/10 00:27:14;;;;;;;;;;;8.70;99.90;;;;;;5111219;28;20018;-75
2023/04/10 00:29:40;;;;;;;;;;;8.70;99.90;;;;;;5107296;28;20339;-76
2023/04/10 00:32:05;;;;;;;;;;;8.60;99.90;;;;;;5110458;28;19930;-75
2023/04/10 00:34:31;;;;;;;;;;;8.50;99.90;;;;;;5090707;28;19924;-75
2023/04/10 00:36:57;;;;;;;;;;;8.50;99.90;;;;;;5110621;28;19930;-75
2023/04/10 00:39:23;;;;;;;;;;;8.40;99.90;;;;;;5108268;28;19932;-76
2023/04/10 00:41:48;;;;;;;;;;;8.40;99.90;;;;;;5101426;28;19931;-75
2023/04/10 00:44:14;;;;;;;;;;;8.40;99.90;;;;;;5092146;28;19938;-75
2023/04/10 00:46:40;;;;;;;;;;;8.30;99.90;;;;;;5101672;28;19924;-75
2023/04/10 00:49:05;;;;;;;;;;;8.30;99.90;;;;;;5103653;28;19928;-76
2023/04/10 00:51:31;;;;;;;;;;;8.20;99.90;;;;;;5102837;28;20439;-75
2023/04/10 00:53:58;;;;;;;;;;;8.20;99.90;;;;;;5103921;28;19936;-78
2023/04/10 00:56:24;;;;;;;;;;;8.10;99.90;;;;;;5100855;28;19924;-77
2023/04/10 00:58:49;;;;;;;;;;;8.10;99.90;;;;;;5110486;28;19931;-78
2023/04/10 01:01:15;;;;;;;;;;;8.10;99.90;;;;;;5110364;28;20429;-77
2023/04/10 01:03:41;;;;;;;;;;;8.10;99.90;;;;;;5107541;28;20098;-78
2023/04/10 01:06:13;;;;;;;;;;;8.10;99.90;;;;;;5100799;28;19956;-78
2023/04/10 01:08:38;;;;;;;;;;;8.00;99.90;;;;;;5079534;28;19924;-77
2023/04/10 01:11:06;;;;;;;;;;;8.00;99.90;;;;;;5109949;28;19931;-78
2023/04/10 01:13:43;;;;;;;;;;;8.00;99.90;;;;;;5108384;28;20034;-78
2023/04/10 01:16:12;;;;;;;;;;;7.90;99.90;;;;;;5098856;28;19977;-77
2023/04/10 01:18:40;;;;;;;;;;;7.90;99.90;;;;;;5105301;28;19923;-78
2023/04/10 01:21:08;;;;;;;;;;;7.90;99.90;;;;;;5109698;28;19931;-77
2023/04/10 01:23:45;;;;;;;;;;;7.90;99.90;;;;;;5104955;28;19931;-77
2023/04/10 01:26:12;;;;;;;;;;;7.90;99.90;;;;;;5107415;28;20015;-77
2023/04/10 01:28:41;;;;;;;;;;;7.90;99.90;;;;;;5107451;28;19924;-76
2023/04/10 01:31:09;;;;;;;;;;;7.80;99.90;;;;;;5105899;28;19928;-75
2023/04/10 01:33:42;;;;;;;;;;;7.80;99.90;;;;;;5086956;28;20688;-75
2023/04/10 01:36:09;;;;;;;;;;;7.80;99.90;;;;;;5104280;28;19964;-76
2023/04/10 01:38:38;;;;;;;;;;;7.80;99.90;;;;;;5099118;28;20257;-75
2023/04/10 01:41:05;;;;;;;;;;;7.80;99.90;;;;;;5106373;28;20048;-75
2023/04/10 01:43:31;;;;;;;;;;;7.80;99.90;;;;;;5108123;28;19931;-76
2023/04/10 01:45:57;;;;;;;;;;;7.80;99.90;;;;;;5105367;28;19932;-75
2023/04/10 01:48:23;;;;;;;;;;;7.80;99.90;;;;;;5107505;28;20010;-75
2023/04/10 01:50:49;;;;;;;;;;;7.80;99.90;;;;;;5088007;28;20059;-76
2023/04/10 01:53:15;;;;;;;;;;;7.80;99.90;;;;;;5091117;28;19931;-76
2023/04/10 01:55:41;;;;;;;;;;;7.80;99.90;;;;;;5096324;28;19927;-76
2023/04/10 01:58:07;;;;;;;;;;;7.80;99.90;;;;;;5093342;28;19934;-75
2023/04/10 02:00:42;;;;;;;;;;;7.80;99.90;;;;;;5105637;28;19935;-75
2023/04/10 02:03:08;;;;;;;;;;;7.80;99.90;;;;;;5090117;28;19927;-75
2023/04/10 02:05:45;;;;;;;;;;;7.70;99.90;;;;;;5089690;28;19924;-75
2023/04/10 02:08:12;;;;;;;;;;;7.70;99.90;;;;;;5082624;28;19924;-75
2023/04/10 02:10:48;;;;;;;;;;;7.70;99.90;;;;;;5088899;28;19924;-75
2023/04/10 02:13:14;;;;;;;;;;;7.60;99.90;;;;;;5092643;28;19930;-77
2023/04/10 02:15:41;;;;;;;;;;;7.60;99.90;;;;;;5100867;28;19970;-75
2023/04/10 02:18:08;;;;;;;;;;;7.60;99.90;;;;;;5089836;28;19932;-75
2023/04/10 02:20:34;;;;;;;;;;;7.60;99.90;;;;;;5103819;28;19924;-75
2023/04/10 02:23:02;;;;;;;;;;;7.60;99.90;;;;;;5106609;28;20028;-75
2023/04/10 02:25:31;;;;;;;;;;;7.60;99.90;;;;;;5102577;28;20007;-75
2023/04/10 02:27:57;;;;;;;;;;;7.60;99.90;;;;;;5072341;28;20018;-75
2023/04/10 02:30:23;;;;;;;;;;;7.50;99.90;;;;;;5102272;28;20006;-75
2023/04/10 02:32:49;;;;;;;;;;;7.50;99.90;;;;;;5107491;28;19963;-75
2023/04/10 02:35:15;;;;;;;;;;;7.50;99.90;;;;;;5093443;28;20409;-75
2023/04/10 02:37:41;;;;;;;;;;;7.50;99.90;;;;;;5107904;27;20002;-75
2023/04/10 02:40:07;;;;;;;;;;;7.50;99.90;;;;;;5104236;28;19928;-77
2023/04/10 02:42:33;;;;;;;;;;;7.50;99.90;;;;;;5104256;28;19969;-77
2023/04/10 02:44:58;;;;;;;;;;;7.50;99.90;;;;;;5096931;28;20010;-77
2023/04/10 02:47:24;;;;;;;;;;;7.40;99.90;;;;;;5104545;28;19923;-77
2023/04/10 02:49:49;;;;;;;;;;;7.40;99.90;;;;;;5097361;28;20347;-77
2023/04/10 02:52:16;;;;;;;;;;;7.40;99.90;;;;;;5106341;28;20360;-77
2023/04/10 02:54:41;;;;;;;;;;;7.40;99.90;;;;;;5107269;28;20007;-75
2023/04/10 02:57:07;;;;;;;;;;;7.40;99.90;;;;;;5106697;28;20019;-75
2023/04/10 02:59:32;;;;;;;;;;;7.30;99.90;;;;;;5108166;28;19931;-75
2023/04/10 03:01:58;;;;;;;;;;;7.30;99.90;;;;;;5104681;28;19950;-75
2023/04/10 03:04:23;;;;;;;;;;;7.20;99.90;;;;;;5107285;28;19931;-75
2023/04/10 03:06:49;;;;;;;;;;;7.20;99.90;;;;;;5106244;28;20049;-75
2023/04/10 03:09:14;;;;;;;;;;;7.20;99.90;;;;;;5108259;28;20002;-75
2023/04/10 03:11:40;;;;;;;;;;;7.20;99.90;;;;;;5103078;28;19943;-75
2023/04/10 03:14:08;;;;;;;;;;;7.20;99.90;;;;;;5097328;28;19934;-75
2023/04/10 03:16:34;;;;;;;;;;;7.20;99.90;;;;;;5103419;28;19924;-75
2023/04/10 03:19:00;;;;;;;;;;;7.20;99.90;;;;;;5088718;28;20311;-75
2023/04/10 03:21:26;;;;;;;;;;;7.20;99.90;;;;;;5101067;28;19932;-75
2023/04/10 03:23:51;;;;;;;;;;;7.20;99.90;;;;;;5106604;28;20389;-75
2023/04/10 03:26:17;;;;;;;;;;;7.20;99.90;;;;;;5092784;28;20021;-75
2023/04/10 03:28:42;;;;;;;;;;;7.20;99.90;;;;;;5104519;28;19923;-75
2023/04/10 03:31:09;;;;;;;;;;;7.10;99.90;;;;;;5102758;28;20737;-75
2023/04/10 03:33:35;;;;;;;;;;;7.20;99.90;;;;;;5106280;28;20412;-75
2023/04/10 03:36:00;;;;;;;;;;;7.10;99.90;;;;;;5101725;28;20008;-75
2023/04/10 03:38:26;;;;;;;;;;;7.10;99.90;;;;;;5105754;28;20019;-75
2023/04/10 03:40:52;;;;;;;;;;;7.10;99.90;;;;;;5102783;28;19939;-75
2023/04/10 03:43:18;;;;;;;;;;;7.10;99.90;;;;;;5099178;28;19931;-75
2023/04/10 03:45:43;;;;;;;;;;;7.10;99.90;;;;;;5099284;28;19928;-75
2023/04/10 03:48:09;;;;;;;;;;;7.10;99.90;;;;;;5099036;28;19924;-75
2023/04/10 03:50:35;;;;;;;;;;;7.10;99.90;;;;;;5098131;28;20499;-75
2023/04/10 03:53:00;;;;;;;;;;;7.00;99.90;;;;;;5106638;28;19932;-75
2023/04/10 03:55:26;;;;;;;;;;;7.00;99.90;;;;;;5106277;28;20018;-75
2023/04/10 03:57:51;;;;;;;;;;;7.00;99.90;;;;;;5104995;28;20563;-75
2023/04/10 04:00:17;;;;;;;;;;;7.00;99.90;;;;;;5101511;28;19927;-75
2023/04/10 04:02:42;;;;;;;;;;;7.00;99.90;;;;;;5105659;28;19931;-75
2023/04/10 04:05:08;;;;;;;;;;;7.00;99.90;;;;;;5096459;28;20010;-75
2023/04/10 04:07:34;;;;;;;;;;;7.00;99.90;;;;;;5093119;28;20476;-75
2023/04/10 04:09:59;;;;;;;;;;;7.00;99.90;;;;;;5100801;28;20381;-75
2023/04/10 04:12:25;;;;;;;;;;;7.00;99.90;;;;;;5104670;28;19976;-75
2023/04/10 04:14:51;;;;;;;;;;;6.90;99.90;;;;;;5105197;27;20030;-75
2023/04/10 04:17:16;;;;;;;;;;;6.90;99.90;;;;;;5102581;28;19935;-75
2023/04/10 04:19:42;;;;;;;;;;;6.90;99.90;;;;;;5092719;28;19935;-75
2023/04/10 04:22:07;;;;;;;;;;;6.90;99.90;;;;;;5095633;28;20366;-75
2023/04/10 04:24:33;;;;;;;;;;;6.80;99.90;;;;;;5102657;28;19931;-75
2023/04/10 04:26:58;;;;;;;;;;;6.90;99.90;;;;;;5101299;28;19924;-75
2023/04/10 04:29:24;;;;;;;;;;;6.90;99.90;;;;;;5097343;28;19924;-75
2023/04/10 04:31:49;;;;;;;;;;;6.90;99.90;;;;;;5101242;28;20317;-75
2023/04/10 04:34:15;;;;;;;;;;;6.90;99.90;;;;;;5104948;28;19932;-75
2023/04/10 04:36:41;;;;;;;;;;;6.90;99.90;;;;;;5098982;28;20438;-75
2023/04/10 04:39:06;;;;;;;;;;;6.90;99.90;;;;;;5098247;28;20508;-75
2023/04/10 04:41:32;;;;;;;;;;;6.90;99.90;;;;;;5099199;28;20019;-75
2023/04/10 04:43:59;;;;;;;;;;;6.90;99.90;;;;;;5096351;28;19928;-75
2023/04/10 04:46:25;;;;;;;;;;;6.90;99.90;;;;;;5098909;28;20389;-75
2023/04/10 04:48:51;;;;;;;;;;;6.90;99.90;;;;;;5102413;28;19924;-75
2023/04/10 04:51:16;;;;;;;;;;;6.90;99.90;;;;;;5097303;28;20007;-75
2023/04/10 04:53:42;;;;;;;;;;;6.90;99.90;;;;;;5100691;28;20297;-75
2023/04/10 04:56:07;;;;;;;;;;;6.90;99.90;;;;;;5097357;28;19924;-75
2023/04/10 04:58:33;;;;;;;;;;;6.90;99.90;;;;;;5095823;28;19924;-75
2023/04/10 05:00:59;;;;;;;;;;;6.90;99.90;;;;;;5096603;28;19924;-75
2023/04/10 05:03:27;;;;;;;;;;;6.90;99.90;;;;;;5095475;28;19931;-75
2023/04/10 05:05:53;;;;;;;;;;;6.90;99.90;;;;;;5095951;28;19931;-75
2023/04/10 05:08:18;;;;;;;;;;;6.90;99.90;;;;;;5100290;28;19923;-75
2023/04/10 05:10:44;;;;;;;;;;;6.90;99.90;;;;;;5095868;28;20302;-75
2023/04/10 05:13:09;;;;;;;;;;;6.90;99.90;;;;;;5099319;28;20389;-75
2023/04/10 05:15:35;;;;;;;;;;;6.90;99.90;;;;;;5095811;28;20424;-75
2023/04/10 05:18:00;;;;;;;;;;;7.00;99.90;;;;;;5092333;28;19924;-75
2023/04/10 05:20:26;;;;;;;;;;;7.00;99.90;;;;;;5090561;28;19928;-75
2023/04/10 05:22:52;;;;;;;;;;;7.00;99.90;;;;;;5107476;28;19927;-75
2023/04/10 05:25:17;;;;;;;;;;;7.10;99.90;;;;;;5108614;28;20450;-75
2023/04/10 05:27:43;;;;;;;;;;;7.00;99.90;;;;;;5107639;28;19931;-75
2023/04/10 05:30:09;;;;;;;;;;;7.10;99.90;;;;;;5107779;28;19969;-75
2023/04/10 05:32:34;;;;;;;;;;;7.20;99.90;;;;;;5106691;28;20022;-75
2023/04/10 05:35:00;;;;;;;;;;;7.20;99.90;;;;;;5096221;28;19931;-75
2023/04/10 05:37:25;;;;;;;;;;;7.30;99.90;;;;;;5106613;28;19928;-75
2023/04/10 05:39:51;;;;;;;;;;;7.30;99.90;;;;;;5104904;28;20335;-75
2023/04/10 05:42:16;;;;;;;;;;;7.40;99.90;;;;;;5105113;28;19923;-75
2023/04/10 05:44:43;;;;;;;;;;;7.40;99.90;;;;;;5100049;28;19982;-75
2023/04/10 05:47:08;;;;;;;;;;;7.50;99.90;;;;;;5100723;28;19968;-75
2023/04/10 05:49:34;;;;;;;;;;;7.50;99.90;;;;;;5095249;28;19923;-75
2023/04/10 05:51:59;;;;;;;;;;;7.60;99.90;;;;;;5105638;28;20458;-75
2023/04/10 05:54:25;;;;;;;;;;;7.60;99.90;;;;;;5103777;28;19936;-75
2023/04/10 05:56:50;;;;;;;;;;;7.70;99.90;;;;;;5104734;28;20014;-77
2023/04/10 05:59:16;;;;;;;;;;;7.70;99.90;;;;;;5103131;28;19946;-76
2023/04/10 06:01:43;;;;;;;;;;;7.80;99.90;;;;;;5103014;28;20309;-76
2023/04/10 06:04:09;;;;;;;;;;;7.80;99.90;;;;;;5083895;28;19923;-76
2023/04/10 06:06:35;;;;;;;;;;;7.80;99.90;;;;;;5104265;28;19923;-76
2023/04/10 06:09:00;;;;;;;;;;;7.90;99.90;;;;;;5089562;28;20014;-76
2023/04/10 06:11:26;;;;;;;;;;;7.90;99.90;;;;;;5089377;28;20053;-76
2023/04/10 06:13:51;;;;;;;;;;;7.90;99.90;;;;;;5100195;28;20018;-76
2023/04/10 06:16:17;;;;;;;;;;;8.00;99.90;;;;;;5102526;28;20354;-76
2023/04/10 06:18:43;;;;;;;;;;;8.10;99.90;;;;;;5093839;28;20613;-76
2023/04/10 06:21:08;;;;;;;;;;;8.10;99.90;;;;;;5089547;28;19931;-76
2023/04/10 06:23:34;;;;;;;;;;;8.10;99.90;;;;;;5089256;28;19931;-76
2023/04/10 06:26:00;;;;;;;;;;;8.20;99.90;;;;;;5089440;28;19924;-76
2023/04/10 06:28:25;;;;;;;;;;;8.30;99.90;;;;;;5103161;28;20408;-75
2023/04/10 06:30:51;;;;;;;;;;;8.30;99.90;;;;;;5106126;28;19928;-75
2023/04/10 06:33:16;;;;;;;;;;;8.40;99.90;;;;;;5102256;28;19924;-75
2023/04/10 06:35:42;;;;;;;;;;;8.50;99.90;;;;;;5106117;28;19934;-76
2023/04/10 06:38:08;;;;;;;;;;;8.60;99.90;;;;;;5101522;28;19939;-75
2023/04/10 06:40:33;;;;;;;;;;;8.70;99.90;;;;;;5105814;28;20002;-75
2023/04/10 06:42:59;;;;;;;;;;;8.80;99.90;;;;;;5101672;28;19969;-75
2023/04/10 06:45:25;;;;;;;;;;;8.80;99.90;;;;;;5104763;28;19924;-75
2023/04/10 06:47:51;;;;;;;;;;;8.90;99.90;;;;;;5100597;28;19930;-75
2023/04/10 06:50:16;;;;;;;;;;;9.00;99.90;;;;;;5105650;28;19975;-75
2023/04/10 06:52:43;;;;;;;;;;;9.10;99.90;;;;;;5084180;28;20306;-76
2023/04/10 06:55:08;;;;;;;;;;;9.20;99.90;;;;;;5103838;28;19924;-72
2023/04/10 06:57:34;;;;;;;;;;;9.20;99.90;;;;;;5101959;28;20412;-74
2023/04/10 07:00:00;;;;;;;;;;;9.20;99.90;;;;;;5103782;28;19924;-74
2023/04/10 07:02:25;;;;;;;;;;;9.30;99.90;;;;;;5092580;28;19955;-75
2023/04/10 07:04:52;;;;;;;;;;;9.30;99.90;;;;;;5086476;28;19928;-76
2023/04/10 07:07:18;;;;;;;;;;;9.30;99.90;;;;;;5082564;28;19925;-76
2023/04/10 07:09:43;;;;;;;;;;;9.30;99.90;;;;;;5085783;28;19928;-73
2023/04/10 07:12:09;;;;;;;;;;;9.40;99.90;;;;;;5079015;28;19924;-73
2023/04/10 07:14:35;;;;;;;;;;;9.40;99.90;;;;;;5103909;28;19924;-73
2023/04/10 07:17:00;;;;;;;;;;;9.50;99.90;;;;;;5096730;28;19925;-73
2023/04/10 07:19:26;;;;;;;;;;;9.60;99.90;;;;;;5100781;28;20400;-73
2023/04/10 07:21:51;;;;;;;;;;;9.60;99.90;;;;;;5104888;28;19965;-73
2023/04/10 07:24:17;;;;;;;;;;;9.70;99.90;;;;;;5106499;28;20010;-73
2023/04/10 07:26:45;;;;;;;;;;;9.80;99.90;;;;;;5104221;28;19936;-73
2023/04/10 07:29:11;;;;;;;;;;;9.90;99.90;;;;;;5106989;28;19923;-73
2023/04/10 07:31:37;;;;;;;;;;;9.90;99.90;;;;;;5091840;28;20019;-73
2023/04/10 07:34:02;;;;;;;;;;;9.90;99.90;;;;;;5106907;28;20022;-73
2023/04/10 07:36:28;;;;;;;;;;;9.90;99.90;;;;;;5103474;28;19924;-73
2023/04/10 07:38:54;;;;;;;;;;;9.90;99.90;;;;;;5106384;28;19984;-73
2023/04/10 07:41:19;;;;;;;;;;;9.90;99.90;;;;;;5103921;28;20286;-73
2023/04/10 07:43:45;;;;;;;;;;;9.90;99.90;;;;;;5106507;28;20638;-73
2023/04/10 07:46:11;;;;;;;;;;;10.00;99.90;;;;;;5102398;28;19931;-73
2023/04/10 07:48:36;;;;;;;;;;;10.10;99.90;;;;;;5106761;28;19924;-73
2023/04/10 07:51:02;;;;;;;;;;;10.20;99.90;;;;;;5102892;28;20255;-73
2023/04/10 07:53:27;;;;;;;;;;;10.40;99.90;;;;;;5106128;28;19923;-74
2023/04/10 07:55:53;;;;;;;;;;;10.50;99.90;;;;;;5102127;28;20384;-74
2023/04/10 07:58:18;;;;;;;;;;;10.60;99.90;;;;;;5106552;28;19930;-73
2023/04/10 08:00:44;;;;;;;;;;;10.70;99.90;;;;;;5083515;28;19938;-73
2023/04/10 08:03:11;;;;;;;;;;;10.80;99.90;;;;;;5104885;28;19924;-73
2023/04/10 08:05:36;;;;;;;;;;;10.90;99.90;;;;;;5098109;28;20274;-73
2023/04/10 08:08:02;;;;;;;;;;;11.00;99.90;;;;;;5087819;28;19938;-73
2023/04/10 08:10:27;;;;;;;;;;;11.00;99.90;;;;;;5101560;28;19932;-73
2023/04/10 08:12:53;;;;;;;;;;;11.10;99.90;;;;;;5105748;28;20015;-74
2023/04/10 08:15:19;;;;;;;;;;;11.20;99.90;;;;;;5098381;28;19930;-73
2023/04/10 08:17:44;;;;;;;;;;;11.30;99.90;;;;;;5089357;28;20442;-73
2023/04/10 08:20:10;;;;;;;;;;;11.40;99.90;;;;;;5098910;28;19930;-73
2023/04/10 08:22:36;;;;;;;;;;;11.50;99.90;;;;;;5098122;28;19923;-73
2023/04/10 08:25:02;;;;;;;;;;;11.60;99.90;;;;;;5093289;28;19924;-73
2023/04/10 08:27:27;;;;;;;;;;;11.80;99.90;;;;;;5095893;28;20011;-73
2023/04/10 08:29:53;;;;;;;;;;;12.00;99.90;;;;;;5086940;28;19924;-74
2023/04/10 08:32:18;;;;;;;;;;;12.10;99.90;;;;;;5099599;28;19924;-73
2023/04/10 08:34:44;;;;;;;;;;;12.10;99.90;;;;;;5102879;28;19924;-74
2023/04/10 08:37:11;;;;;;;;;;;12.30;99.90;;;;;;5097507;28;19924;-73
2023/04/10 08:39:36;;;;;;;;;;;12.30;99.90;;;;;;5105741;28;19924;-74
2023/04/10 08:42:02;;;;;;;;;;;12.50;99.90;;;;;;5110475;28;19935;-73
2023/04/10 08:44:28;;;;;;;;;;;12.50;99.90;;;;;;5107420;27;19923;-74
2023/04/10 08:46:57;;;;;;;;;;;12.50;99.90;;;;;;5109261;28;20012;-74
2023/04/10 08:49:24;;;;;;;;;;;12.50;99.90;;;;;;5077162;28;19928;-73
2023/04/10 08:51:56;;;;;;;;;;;12.50;99.90;;;;;;5090828;28;19924;-74
2023/04/10 08:54:26;;;;;;;;;;;12.50;99.90;;;;;;5103014;28;19934;-73
2023/04/10 08:56:52;;;;;;;;;;;12.60;99.90;;;;;;5108031;28;19958;-73
2023/04/10 08:59:18;;;;;;;;;;;12.80;99.90;;;;;;5105018;28;20503;-73
2023/04/10 09:01:45;;;;;;;;;;;13.00;99.90;;;;;;5106683;28;20002;-73
2023/04/10 09:04:11;;;;;;;;;;;13.20;99.90;;;;;;5094222;28;19931;-74
2023/04/10 09:06:36;;;;;;;;;;;13.20;99.90;;;;;;5097929;28;19928;-73
2023/04/10 09:09:02;;;;;;;;;;;13.30;99.90;;;;;;5086366;28;19932;-73
2023/04/10 09:11:46;;;;;;;;;;;13.50;99.90;;;;;;5105339;28;19930;-73
2023/04/10 09:14:25;;;;;;;;;;;13.50;99.90;;;;;;5101259;28;19924;-73
2023/04/10 09:16:51;;;;;;;;;;;13.60;99.90;;;;;;5100499;28;19939;-73
2023/04/10 09:19:32;;;;;;;;;;;13.70;99.90;;;;;;5091869;28;19946;-73
2023/04/10 09:21:58;;;;;;;;;;;13.80;99.90;;;;;;5106348;28;19924;-73
2023/04/10 09:24:24;;;;;;;;;;;14.00;99.90;;;;;;5097695;28;19932;-74
2023/04/10 09:26:50;;;;;;;;;;;14.30;99.90;;;;;;5096285;28;20036;-74
2023/04/10 09:29:15;;;;;;;;;;;14.80;99.90;;;;;;5108930;28;19928;-74
2023/04/10 09:31:42;;;;;;;;;;;15.10;99.00;;;;;;5102203;28;19959;-74
2023/04/10 09:34:08;;;;;;;;;;;15.20;99.80;;;;;;5102984;28;19924;-74
2023/04/10 09:36:33;;;;;;;;;;;15.20;98.80;;;;;;5107807;28;19930;-74
2023/04/10 09:38:59;;;;;;;;;;;15.10;98.30;;;;;;5108447;28;19923;-74
2023/04/10 09:41:25;;;;;;;;;;;15.30;98.60;;;;;;5107018;28;20329;-74
2023/04/10 09:44:04;;;;;;;;;;;15.40;97.80;;;;;;5106908;28;20274;-74
2023/04/10 09:46:29;;;;;;;;;;;15.60;97.20;;;;;;5107681;28;20382;-73
2023/04/10 09:48:55;;;;;;;;;;;15.80;96.20;;;;;;5102929;28;19928;-74
2023/04/10 09:51:29;;;;;;;;;;;16.00;96.50;;;;;;5089242;28;20413;-73
2023/04/10 09:53:54;;;;;;;;;;;15.80;93.40;;;;;;5094483;28;19924;-74
2023/04/10 09:56:21;;;;;;;;;;;15.60;94.10;;;;;;5108802;28;19924;-73
2023/04/10 09:58:47;;;;;;;;;;;15.50;94.90;;;;;;5103315;28;19928;-74
2023/04/10 10:01:13;;;;;;;;;;;15.50;94.60;;;;;;5099917;28;19924;-74
2023/04/10 10:03:39;;;;;;;;;;;15.60;95.10;;;;;;5099813;28;19928;-74
2023/04/10 10:06:05;;;;;;;;;;;15.60;94.70;;;;;;5107656;28;19923;-73
2023/04/10 10:08:32;;;;;;;;;;;15.70;94.90;;;;;;5101710;28;19931;-73
2023/04/10 10:10:58;;;;;;;;;;;16.00;95.40;;;;;;5107175;28;19931;-74
2023/04/10 10:13:26;;;;;;;;;;;16.20;95.20;;;;;;5102877;28;20289;-74
2023/04/10 10:16:03;;;;;;;;;;;16.30;93.00;;;;;;5106081;28;19928;-73
2023/04/10 10:18:35;;;;;;;;;;;16.40;92.80;;;;;;5082489;28;19976;-74
2023/04/10 10:21:01;;;;;;;;;;;16.50;93.30;;;;;;5107590;28;19924;-74
2023/04/10 10:23:27;;;;;;;;;;;16.60;92.30;;;;;;5101878;28;19931;-74
2023/04/10 10:25:53;;;;;;;;;;;16.90;92.30;;;;;;5106867;27;20373;-74
2023/04/10 10:28:19;;;;;;;;;;;17.10;93.00;;;;;;5102700;28;19931;-74
2023/04/10 10:30:46;;;;;;;;;;;17.40;91.20;;;;;;5106500;28;19927;-73
2023/04/10 10:33:12;;;;;;;;;;;17.40;90.60;;;;;;5102599;28;20017;-74
2023/04/10 10:35:38;;;;;;;;;;;17.50;88.40;;;;;;5105450;28;20301;-74
2023/04/10 10:38:04;;;;;;;;;;;17.50;85.70;;;;;;5091693;28;19934;-73
2023/04/10 10:40:32;;;;;;;;;;;17.60;87.30;;;;;;5095726;28;19924;-74
2023/04/10 10:43:12;;;;;;;;;;;17.80;87.10;;;;;;5099842;28;19924;-74
2023/04/10 10:45:38;;;;;;;;;;;17.90;86.80;;;;;;5102531;28;19947;-74
2023/04/10 10:48:03;;;;;;;;;;;18.00;88.10;;;;;;5102919;28;19928;-74
2023/04/10 10:50:47;;;;;;;;;;;17.80;84.00;;;;;;5104113;28;19924;-74
2023/04/10 10:53:29;;;;;;;;;;;17.70;83.60;;;;;;5088148;28;20452;-74
2023/04/10 10:55:55;;;;;;;;;;;17.50;83.90;;;;;;5101482;28;20499;-74
2023/04/10 10:58:40;;;;;;;;;;;17.30;82.80;;;;;;5103829;28;20018;-74
2023/04/10 11:01:06;;;;;;;;;;;17.30;83.10;;;;;;5104035;28;19928;-74
2023/04/10 11:03:32;;;;;;;;;;;17.20;84.40;;;;;;5102844;28;20447;-74
2023/04/10 11:05:58;;;;;;;;;;;17.10;86.00;;;;;;5104767;28;20024;-74
2023/04/10 11:08:42;;;;;;;;;;;17.00;87.70;;;;;;5103025;28;19931;-74
2023/04/10 11:11:08;;;;;;;;;;;17.00;88.00;;;;;;5081031;28;19925;-74
2023/04/10 11:13:35;;;;;;;;;;;16.90;88.00;;;;;;5099582;28;19924;-74
2023/04/10 11:16:02;;;;;;;;;;;16.80;88.20;;;;;;5098258;28;19923;-74
2023/04/10 11:18:46;;;;;;;;;;;16.70;86.10;;;;;;5086192;28;20282;-73
2023/04/10 11:21:16;;;;;;;;;;;16.60;85.60;;;;;;5088372;28;19924;-73
2023/04/10 11:23:54;;;;;;;;;;;16.70;89.10;;;;;;5105105;28;20065;-73
2023/04/10 11:26:32;;;;;;;;;;;16.70;88.90;;;;;;5093774;28;19988;-74
2023/04/10 11:28:58;;;;;;;;;;;16.70;88.10;;;;;;5105827;28;20327;-73
2023/04/10 11:31:24;;;;;;;;;;;16.70;87.60;;;;;;5102778;28;19976;-73
2023/04/10 11:33:56;;;;;;;;;;;16.60;87.20;;;;;;5096562;28;19924;-73
2023/04/10 11:36:22;;;;;;;;;;;16.60;88.30;;;;;;5084545;28;20334;-73
2023/04/10 11:38:55;;;;;;;;;;;16.60;87.00;;;;;;5105638;28;20018;-74
2023/04/10 11:41:20;;;;;;;;;;;16.60;85.60;;;;;;5102032;28;19924;-73
2023/04/10 11:43:50;;;;;;;;;;;16.70;85.80;;;;;;5106535;28;19924;-74
2023/04/10 11:46:15;;;;;;;;;;;16.70;88.40;;;;;;5090749;28;19923;-73
2023/04/10 11:48:41;;;;;;;;;;;16.80;89.00;;;;;;5103275;28;19993;-74
2023/04/10 11:51:10;;;;;;;;;;;16.90;87.90;;;;;;5097765;28;19924;-74
2023/04/10 11:53:36;;;;;;;;;;;16.90;86.90;;;;;;5099203;28;19968;-74
2023/04/10 11:56:02;;;;;;;;;;;16.90;87.00;;;;;;5102557;28;20419;-73
2023/04/10 11:58:29;;;;;;;;;;;16.80;86.80;;;;;;5085775;28;19942;-73
2023/04/10 12:00:58;;;;;;;;;;;16.80;86.70;;;;;;5103362;28;19935;-74
2023/04/10 12:03:34;;;;;;;;;;;16.70;86.10;;;;;;5102591;28;19924;-73
2023/04/10 12:06:00;;;;;;;;;;;16.70;83.60;;;;;;5105261;28;19927;-73
2023/04/10 12:08:35;;;;;;;;;;;16.60;85.60;;;;;;5101487;28;20301;-73
2023/04/10 12:11:01;;;;;;;;;;;16.50;86.60;;;;;;5102991;28;20365;-74
2023/04/10 12:13:27;;;;;;;;;;;16.50;87.10;;;;;;5100548;28;19924;-74
2023/04/10 12:15:53;;;;;;;;;;;16.50;85.60;;;;;;5106085;28;20326;-74
2023/04/10 12:18:22;;;;;;;;;;;16.50;86.30;;;;;;5095786;28;19928;-74
2023/04/10 12:20:47;;;;;;;;;;;16.50;86.50;;;;;;5109844;28;19931;-73
2023/04/10 12:23:13;;;;;;;;;;;16.50;85.30;;;;;;5108284;28;19924;-74
2023/04/10 12:25:40;;;;;;;;;;;16.60;84.70;;;;;;5111001;28;19927;-74
2023/04/10 12:28:06;;;;;;;;;;;16.70;85.80;;;;;;5108031;28;19924;-74
2023/04/10 12:30:32;;;;;;;;;;;16.80;85.90;;;;;;5110796;28;20019;-74
2023/04/10 12:33:02;;;;;;;;;;;17.00;85.40;;;;;;5106277;28;20050;-74
2023/04/10 12:35:37;;;;;;;;;;;17.20;85.80;;;;;;5109998;28;19924;-74
2023/04/10 12:38:03;;;;;;;;;;;17.40;85.50;;;;;;5104624;28;19934;-74
2023/04/10 12:40:28;;;;;;;;;;;17.70;85.80;;;;;;5108410;28;20317;-74
2023/04/10 12:42:54;;;;;;;;;;;18.10;81.60;;;;;;5104407;28;19932;-74
2023/04/10 12:45:19;;;;;;;;;;;18.60;83.30;;;;;;5109437;28;20580;-74
2023/04/10 12:47:46;;;;;;;;;;;19.00;80.50;;;;;;5104272;28;19924;-74
2023/04/10 12:50:13;;;;;;;;;;;19.30;81.10;;;;;;5099947;28;20436;-74
2023/04/10 12:52:42;;;;;;;;;;;19.40;75.30;;;;;;5104692;28;19931;-74
2023/04/10 12:55:12;;;;;;;;;;;19.60;74.80;;;;;;5109202;28;19928;-74
2023/04/10 12:57:38;;;;;;;;;;;19.70;75.50;;;;;;5100962;28;19934;-74
2023/04/10 13:00:05;;;;;;;;;;;19.50;72.80;;;;;;5097110;28;19928;-74
2023/04/10 13:02:30;;;;;;;;;;;19.30;72.80;;;;;;5104769;28;19939;-75
2023/04/10 13:04:56;;;;;;;;;;;19.00;73.90;;;;;;5107507;28;19928;-75
2023/04/10 13:07:22;;;;;;;;;;;18.80;72.60;;;;;;5100013;28;19928;-74
2023/04/10 13:09:47;;;;;;;;;;;18.60;72.70;;;;;;5100097;28;19924;-75
2023/04/10 13:12:13;;;;;;;;;;;18.30;73.20;;;;;;5102926;28;19960;-75
2023/04/10 13:14:39;;;;;;;;;;;18.00;74.60;;;;;;5106164;28;20018;-74
2023/04/10 13:17:05;;;;;;;;;;;17.80;76.50;;;;;;5098744;28;19924;-75
2023/04/10 13:19:30;;;;;;;;;;;17.70;78.10;;;;;;5102724;28;19967;-74
2023/04/10 13:21:58;;;;;;;;;;;17.50;78.80;;;;;;5094586;28;19935;-75
2023/04/10 13:24:24;;;;;;;;;;;17.40;78.30;;;;;;5107449;28;19924;-74
2023/04/10 13:26:49;;;;;;;;;;;17.30;78.40;;;;;;5106028;28;20378;-74
2023/04/10 13:29:15;;;;;;;;;;;17.10;78.90;;;;;;5108297;28;20408;-74
2023/04/10 13:31:40;;;;;;;;;;;17.10;80.30;;;;;;5104551;28;19928;-74
2023/04/10 13:34:06;;;;;;;;;;;17.00;78.30;;;;;;5106756;28;19928;-75
2023/04/10 13:36:31;;;;;;;;;;;17.00;80.60;;;;;;5102136;28;19928;-74
2023/04/10 13:38:56;;;;;;;;;;;17.00;78.90;;;;;;5104133;28;20720;-74
2023/04/10 13:41:22;;;;;;;;;;;16.90;78.50;;;;;;5083535;28;20272;-74
2023/04/10 13:43:48;;;;;;;;;;;16.90;80.30;;;;;;5105247;28;19977;-74
2023/04/10 13:46:13;;;;;;;;;;;16.80;82.20;;;;;;5099505;28;19924;-74
2023/04/10 13:48:40;;;;;;;;;;;16.80;83.40;;;;;;5103548;28;19931;-74
2023/04/10 13:51:06;;;;;;;;;;;16.70;84.30;;;;;;5102346;28;20385;-74
2023/04/10 13:53:31;;;;;;;;;;;16.70;83.80;;;;;;5087424;28;19924;-74
2023/04/10 13:55:57;;;;;;;;;;;16.70;83.90;;;;;;5101089;28;19928;-74
2023/04/10 13:58:25;;;;;;;;;;;16.60;84.90;;;;;;5105387;28;20297;-74
2023/04/10 14:00:50;;;;;;;;;;;16.60;84.20;;;;;;5093674;28;20003;-74
2023/04/10 14:03:16;;;;;;;;;;;16.60;84.70;;;;;;5103570;28;20434;-74
2023/04/10 14:05:41;;;;;;;;;;;16.60;85.00;;;;;;5097902;28;20090;-74
2023/04/10 14:08:10;;;;;;;;;;;16.50;85.80;;;;;;5097925;28;19930;-74
2023/04/10 14:10:38;;;;;;;;;;;16.50;87.00;;;;;;5099249;28;19924;-74
2023/04/10 14:13:04;;;;;;;;;;;16.50;87.20;;;;;;5101304;28;19928;-75
2023/04/10 14:15:30;;;;;;;;;;;16.50;88.00;;;;;;5098365;28;19985;-74
2023/04/10 14:17:55;;;;;;;;;;;16.50;87.90;;;;;;5094912;28;19932;-75
2023/04/10 14:20:21;;;;;;;;;;;16.40;87.10;;;;;;5107668;28;20422;-74